Time;durP1;ratioP1;P1;durP2;ratioP2;P2;SDS_P1;SDS_P2;PMS_P1;PMS_P2;Temp;Humidity;BMP_temperature;BMP_pressure;BME280_temperature;BME280_humidity;BME280_pressure;Samples;Min_cycle;Max_cycle;Signal;HPM_P1;HPM_P2
2023/02/09 00:01:06;;;;;;;9.15;4.97;;;;;;;0.53;50.15;102916.41;5027213;28;20080;-87
2023/02/09 00:03:32;;;;;;;9.55;4.78;;;;;;;0.51;50.65;102911.31;5028381;28;20065;-89
2023/02/09 00:05:59;;;;;;;9.15;4.55;;;;;;;0.54;50.41;102903.56;5031554;28;20558;-89
2023/02/09 00:08:25;;;;;;;8.95;4.80;;;;;;;0.54;50.40;102908.69;5013089;28;20420;-88
2023/02/09 00:10:50;;;;;;;10.10;5.55;;;;;;;0.54;49.85;102918.09;5031736;28;20128;-88
2023/02/09 00:13:22;;;;;;;9.00;5.13;;;;;;;0.66;49.18;102900.00;5013792;28;20017;-88
2023/02/09 00:15:54;;;;;;;11.13;5.55;;;;;;;0.54;50.04;102920.66;5025077;28;20033;-88
2023/02/09 00:18:21;;;;;;;10.48;5.72;;;;;;;0.48;49.90;102923.31;5012278;28;20036;-89
2023/02/09 00:21:01;;;;;;;7.63;4.75;;;;;;;0.43;49.91;102917.44;5024272;28;20090;-88
2023/02/09 00:23:30;;;;;;;11.50;5.68;;;;;;;0.44;49.50;102912.28;5029931;28;20025;-88
2023/02/09 00:26:03;;;;;;;7.97;4.43;;;;;;;0.46;49.73;102894.31;5031424;28;20033;-88
2023/02/09 00:28:29;;;;;;;10.05;5.78;;;;;;;0.53;48.89;102898.47;5030925;28;20034;-89
2023/02/09 00:30:57;;;;;;;10.77;5.55;;;;;;;0.48;49.81;102889.97;5031450;28;20033;-88
2023/02/09 00:33:23;;;;;;;9.35;5.05;;;;;;;0.44;49.67;102883.22;5012608;28;20034;-87
2023/02/09 00:35:50;;;;;;;9.50;4.03;;;;;;;0.50;49.09;102872.84;5012972;28;20412;-88
2023/02/09 00:38:16;;;;;;;9.45;4.55;;;;;;;0.52;49.00;102876.25;5013312;28;20159;-88
2023/02/09 00:40:41;;;;;;;7.70;5.00;;;;;;;0.46;48.99;102846.41;5012755;28;20444;-88
2023/02/09 00:43:08;;;;;;;9.68;5.18;;;;;;;0.56;48.13;102888.16;5031138;28;20037;-88
2023/02/09 00:45:34;;;;;;;10.50;5.20;;;;;;;0.65;48.40;102857.25;5010814;28;20036;-88
2023/02/09 00:48:00;;;;;;;8.80;4.45;;;;;;;0.60;48.30;102856.47;5013530;28;20061;-88
2023/02/09 00:50:27;;;;;;;7.97;4.65;;;;;;;0.60;47.93;102859.88;5030043;28;20076;-87
2023/02/09 00:52:52;;;;;;;8.68;4.57;;;;;;;0.51;48.87;102856.59;5028380;28;20032;-88
2023/02/09 00:55:18;;;;;;;8.23;4.45;;;;;;;0.50;48.94;102865.16;5030360;28;20033;-88
2023/02/09 00:57:43;;;;;;;10.38;4.47;;;;;;;0.50;48.50;102854.88;5030206;28;20036;-89
2023/02/09 01:00:11;;;;;;;9.40;5.05;;;;;;;0.57;47.84;102862.47;5012523;28;20025;-88
2023/02/09 01:02:36;;;;;;;11.05;4.90;;;;;;;0.62;47.47;102837.59;5029890;28;20025;-87
2023/02/09 01:05:02;;;;;;;7.70;4.18;;;;;;;0.51;48.39;102838.63;5011373;28;20045;-88
2023/02/09 01:07:28;;;;;;;7.93;4.20;;;;;;;0.39;49.17;102836.25;5012702;28;20476;-89
2023/02/09 01:09:53;;;;;;;10.48;4.78;;;;;;;0.41;47.90;102831.97;5030672;28;20497;-88
2023/02/09 01:12:18;;;;;;;7.13;4.55;;;;;;;0.53;47.98;102827.47;5012964;28;20132;-88
2023/02/09 01:14:44;;;;;;;7.82;4.72;;;;;;;0.54;47.45;102836.03;5030040;28;20036;-89
2023/02/09 01:17:09;;;;;;;7.78;4.40;;;;;;;0.52;46.94;102832.63;5012779;28;20025;-88
2023/02/09 01:19:35;;;;;;;7.75;4.25;;;;;;;0.55;47.46;102809.50;5030078;28;20031;-88
2023/02/09 01:22:01;;;;;;;8.65;4.15;;;;;;;0.45;48.13;102819.06;5012432;28;20369;-88
2023/02/09 01:24:26;;;;;;;7.80;4.15;;;;;;;0.32;48.76;102827.81;5029421;28;20021;-88
2023/02/09 01:26:52;;;;;;;7.60;4.28;;;;;;;0.28;48.66;102813.34;5030259;28;20476;-88
2023/02/09 01:29:19;;;;;;;8.23;4.35;;;;;;;0.35;48.30;102804.69;5012606;28;20129;-88
2023/02/09 01:31:45;;;;;;;12.00;5.30;;;;;;;0.45;47.78;102813.09;5013033;28;20440;-89
2023/02/09 01:34:13;;;;;;;11.82;5.13;;;;;;;0.55;46.61;102800.09;5032398;28;20115;-88
2023/02/09 01:36:38;;;;;;;9.50;4.47;;;;;;;0.55;47.05;102812.91;5031205;28;20025;-88
2023/02/09 01:39:04;;;;;;;9.57;4.22;;;;;;;0.45;47.97;102793.44;5016156;28;20135;-88
2023/02/09 01:41:31;;;;;;;8.70;4.60;;;;;;;0.40;47.94;102805.47;5023459;28;20038;-88
2023/02/09 01:44:02;;;;;;;7.80;4.20;;;;;;;0.25;48.59;102796.28;5014244;28;20549;-87
2023/02/09 01:46:29;;;;;;;9.27;4.65;;;;;;;0.09;48.83;102789.66;5013767;28;20033;-88
2023/02/09 01:49:06;;;;;;;12.85;5.20;;;;;;;0.28;48.84;102800.50;5011035;28;20041;-89
2023/02/09 01:51:37;;;;;;;9.07;4.75;;;;;;;0.25;48.49;102803.13;5024269;28;20029;-88
2023/02/09 01:54:08;;;;;;;10.88;5.05;;;;;;;0.33;48.28;102809.84;5040224;28;20021;-87
2023/02/09 01:56:36;;;;;;;12.10;4.88;;;;;;;0.31;48.16;102791.06;5040884;28;20025;-87
2023/02/09 01:59:02;;;;;;;12.50;5.18;;;;;;;0.23;48.56;102787.75;5041398;28;20083;-88
2023/02/09 02:01:28;;;;;;;9.68;4.85;;;;;;;0.35;47.38;102796.16;5043557;28;20029;-88
2023/02/09 02:03:54;;;;;;;9.00;4.93;;;;;;;0.37;47.54;102790.13;5023100;28;20037;-87
2023/02/09 02:06:20;;;;;;;13.32;5.55;;;;;;;0.28;48.31;102780.00;5024580;28;20037;-87
2023/02/09 02:08:56;;;;;;;9.27;4.30;;;;;;;0.26;48.60;102790.28;5037340;28;20013;-88
2023/02/09 02:11:23;;;;;;;7.60;4.20;;;;;;;0.31;47.96;102774.81;5050042;28;20028;-90
2023/02/09 02:13:49;;;;;;;10.80;5.25;;;;;;;0.30;48.03;102789.38;5048173;28;20060;-89
2023/02/09 02:16:21;;;;;;;7.65;4.70;;;;;;;0.26;47.48;102780.03;5036990;28;20041;-89
2023/02/09 02:18:58;;;;;;;10.35;5.07;;;;;;;0.25;47.99;102783.44;5017574;28;20052;-89
2023/02/09 02:22:02;;;;;;;10.07;4.68;;;;;;;0.23;47.55;102767.25;5031782;28;20026;-88
2023/02/09 02:24:54;;;;;;;9.45;5.15;;;;;;;0.19;48.02;102764.75;5025025;28;20022;-89
2023/02/09 02:27:27;;;;;;;9.30;4.70;;;;;;;0.36;46.70;102767.06;5031255;28;20040;-89
2023/02/09 02:30:28;;;;;;;8.45;4.72;;;;;;;0.35;46.95;102765.38;5020461;28;20076;-88
2023/02/09 02:33:06;;;;;;;9.82;5.20;;;;;;;0.24;47.09;102768.94;5018231;28;20029;-88
2023/02/09 02:36:00;;;;;;;9.20;4.70;;;;;;;0.16;48.20;102755.38;5025828;28;20029;-88
2023/02/09 02:38:42;;;;;;;9.38;5.13;;;;;;;0.15;47.69;102768.22;5033284;28;20096;-88
2023/02/09 02:41:19;;;;;;;9.95;5.10;;;;;;;0.16;47.72;102760.50;5029098;28;20374;-88
2023/02/09 02:43:56;;;;;;;10.32;5.18;;;;;;;0.22;47.13;102777.53;5016110;28;20032;-88
2023/02/09 02:46:27;;;;;;;9.60;5.07;;;;;;;0.18;47.35;102771.59;5034226;28;20446;-88
2023/02/09 02:49:09;;;;;;;9.50;4.93;;;;;;;0.12;47.71;102778.50;5033925;28;20533;-87
2023/02/09 02:51:39;;;;;;;11.10;5.05;;;;;;;0.15;47.80;102784.44;5017233;28;20396;-89
2023/02/09 02:54:11;;;;;;;10.85;5.93;;;;;;;0.11;48.05;102787.91;5017989;28;20436;-88
2023/02/09 02:56:41;;;;;;;9.00;4.97;;;;;;;0.14;48.00;102782.75;5016405;28;20029;-88
2023/02/09 02:59:11;;;;;;;9.88;5.15;;;;;;;0.07;48.04;102777.72;5034491;28;20108;-89
2023/02/09 03:01:45;;;;;;;9.65;5.10;;;;;;;-0.02;48.18;102771.03;5033419;28;20329;-89
2023/02/09 03:04:12;;;;;;;12.02;5.40;;;;;;;-0.06;48.68;102779.63;5033717;28;20052;-88
2023/02/09 03:06:37;;;;;;;9.20;4.88;;;;;;;-0.08;48.41;102781.38;5032838;28;20037;-89
2023/02/09 03:09:03;;;;;;;9.13;5.75;;;;;;;-0.10;48.40;102773.69;5015524;28;20206;-89
2023/02/09 03:11:34;;;;;;;10.45;6.07;;;;;;;-0.08;48.29;102786.50;5015045;28;20495;-89
2023/02/09 03:14:13;;;;;;;9.23;5.00;;;;;;;-0.11;48.10;102776.28;5016034;28;20031;-89
2023/02/09 03:16:45;;;;;;;11.43;5.53;;;;;;;-0.16;48.54;102789.16;5014806;28;20034;-89
2023/02/09 03:19:44;;;;;;;8.98;5.28;;;;;;;-0.29;49.12;102781.63;5033168;28;20036;-88
2023/02/09 03:22:37;;;;;;;10.15;5.13;;;;;;;-0.21;48.50;102782.38;5010620;28;20452;-89
2023/02/09 03:25:24;;;;;;;10.88;5.60;;;;;;;-0.18;48.53;102790.03;5008657;28;20090;-88
2023/02/09 03:27:57;;;;;;;9.55;5.20;;;;;;;-0.23;48.68;102789.25;5031117;28;20465;-89
2023/02/09 03:30:24;;;;;;;11.18;6.50;;;;;;;-0.27;48.66;102785.03;5014513;28;20044;-89
2023/02/09 03:32:50;;;;;;;9.45;5.68;;;;;;;-0.22;48.57;102783.25;5014516;28;20395;-89
2023/02/09 03:35:18;;;;;;;10.30;5.53;;;;;;;-0.19;48.55;102788.34;5014423;28;20025;-88
2023/02/09 03:37:44;;;;;;;9.15;4.78;;;;;;;-0.20;48.51;102791.75;5013525;28;20037;-88
2023/02/09 03:40:10;;;;;;;13.70;8.65;;;;;;;-0.25;48.46;102779.00;5032121;28;20021;-88
2023/02/09 03:42:35;;;;;;;10.77;5.05;;;;;;;-0.21;48.68;102787.50;5029628;28;20096;-88
2023/02/09 03:45:03;;;;;;;8.77;5.60;;;;;;;-0.23;48.35;102795.22;5032047;28;20026;-89
2023/02/09 03:47:29;;;;;;;9.60;5.18;;;;;;;-0.22;48.81;102788.38;5012008;28;20025;-88
2023/02/09 03:49:56;;;;;;;11.05;5.88;;;;;;;-0.24;48.48;102774.75;5013706;28;20033;-88
2023/02/09 03:52:22;;;;;;;14.02;5.88;;;;;;;-0.30;48.87;102778.22;5031205;28;20041;-88
2023/02/09 03:54:47;;;;;;;14.73;7.25;;;;;;;-0.32;48.65;102802.16;5031440;28;20447;-89
2023/02/09 03:57:13;;;;;;;11.05;6.20;;;;;;;-0.22;48.33;102784.09;5032032;28;20056;-88
2023/02/09 03:59:38;;;;;;;11.73;6.00;;;;;;;-0.24;48.91;102774.75;5013359;28;20041;-88
2023/02/09 04:02:06;;;;;;;10.07;5.70;;;;;;;-0.26;48.34;102779.88;5013632;28;20048;-89
2023/02/09 04:04:31;;;;;;;15.73;7.25;;;;;;;-0.26;48.35;102789.28;5012887;28;20046;-89
2023/02/09 04:06:57;;;;;;;10.15;5.70;;;;;;;-0.24;48.35;102787.53;5031107;28;20037;-88
2023/02/09 04:09:24;;;;;;;14.20;5.47;;;;;;;-0.23;48.48;102781.56;5030687;28;20025;-88
2023/02/09 04:11:49;;;;;;;11.48;6.13;;;;;;;-0.21;48.22;102792.63;5013214;28;20103;-88
2023/02/09 04:14:15;;;;;;;9.35;5.22;;;;;;;-0.21;47.97;102780.66;5031614;28;20023;-88
2023/02/09 04:16:41;;;;;;;12.35;5.78;;;;;;;-0.19;48.24;102789.19;5012852;28;20045;-89
2023/02/09 04:19:08;;;;;;;10.98;5.82;;;;;;;-0.19;47.81;102781.50;5031158;28;20026;-88
2023/02/09 04:21:34;;;;;;;12.43;6.43;;;;;;;-0.20;48.03;102777.25;5012606;28;20040;-88
2023/02/09 04:23:59;;;;;;;16.27;6.13;;;;;;;-0.26;48.29;102786.72;5013019;28;20033;-88
2023/02/09 04:26:25;;;;;;;12.50;6.50;;;;;;;-0.24;48.38;102796.09;5012389;28;20034;-88
2023/02/09 04:28:50;;;;;;;11.90;6.10;;;;;;;-0.17;48.26;102791.72;5013170;28;20033;-88
2023/02/09 04:31:16;;;;;;;12.27;6.57;;;;;;;-0.19;48.05;102798.59;5027682;28;20188;-88
2023/02/09 04:33:41;;;;;;;10.63;6.35;;;;;;;-0.29;48.37;102802.97;5013093;28;20141;-88
2023/02/09 04:36:07;;;;;;;10.35;6.13;;;;;;;-0.35;48.68;102803.03;5012589;28;20036;-89
2023/02/09 04:38:33;;;;;;;11.63;7.03;;;;;;;-0.35;48.46;102793.63;5005189;28;20033;-88
2023/02/09 04:41:01;;;;;;;12.48;6.18;;;;;;;-0.38;48.86;102791.13;5030818;28;20052;-88
2023/02/09 04:43:27;;;;;;;17.25;6.18;;;;;;;-0.38;49.02;102791.13;5012453;28;20041;-88
2023/02/09 04:45:53;;;;;;;12.95;6.68;;;;;;;-0.34;48.78;102790.22;5013069;28;20033;-88
2023/02/09 04:48:21;;;;;;;12.02;6.15;;;;;;;-0.29;48.58;102789.31;5030708;28;20123;-89
2023/02/09 04:50:47;;;;;;;9.50;6.22;;;;;;;-0.29;48.51;102794.44;5008317;28;20030;-88
2023/02/09 04:53:13;;;;;;;11.88;6.35;;;;;;;-0.26;48.51;102787.56;5008275;28;20041;-88
2023/02/09 04:55:40;;;;;;;11.00;5.82;;;;;;;-0.24;48.66;102808.03;5029621;28;20022;-88
2023/02/09 05:00:50;;;;;;;12.88;7.18;;;;;;;-0.27;48.88;102808.06;5025739;28;20071;-88
2023/02/09 05:03:16;;;;;;;12.10;5.95;;;;;;;-0.30;48.88;102805.56;5030221;28;20053;-88
2023/02/09 05:05:42;;;;;;;12.93;5.80;;;;;;;-0.34;48.74;102817.53;5026847;28;20472;-89
2023/02/09 05:08:07;;;;;;;11.43;5.78;;;;;;;-0.28;48.85;102798.69;5027624;28;20107;-88
2023/02/09 05:10:34;;;;;;;11.25;6.57;;;;;;;-0.33;48.78;102793.63;5011710;28;20059;-87
2023/02/09 05:12:59;;;;;;;10.98;5.90;;;;;;;-0.26;48.63;102776.47;5027329;28;20029;-89
2023/02/09 05:15:25;;;;;;;11.90;5.68;;;;;;;-0.19;48.09;102803.72;5024330;28;20116;-89
2023/02/09 05:17:50;;;;;;;11.63;6.55;;;;;;;-0.16;48.38;102821.63;5012603;28;20126;-88
2023/02/09 05:20:16;;;;;;;10.27;5.32;;;;;;;-0.11;47.98;102837.78;5012191;28;20532;-88
2023/02/09 05:22:41;;;;;;;9.10;5.25;;;;;;;-0.19;48.61;102808.84;5011986;28;20091;-88
2023/02/09 05:25:07;;;;;;;9.43;5.63;;;;;;;-0.25;49.08;102807.19;5011702;28;20045;-88
2023/02/09 05:27:32;;;;;;;10.15;5.93;;;;;;;-0.28;48.87;102806.38;5011569;28;20108;-88
2023/02/09 05:29:58;;;;;;;14.43;6.13;;;;;;;-0.38;49.18;102798.81;5012438;28;20099;-88
2023/02/09 05:32:23;;;;;;;11.43;6.70;;;;;;;-0.42;49.46;102812.50;5029564;28;20216;-88
2023/02/09 05:34:49;;;;;;;11.02;6.18;;;;;;;-0.45;49.54;102796.31;5011523;28;20037;-89
2023/02/09 05:37:14;;;;;;;15.00;6.85;;;;;;;-0.51;49.74;102804.94;5011677;28;20120;-89
2023/02/09 05:39:40;;;;;;;10.50;6.00;;;;;;;-0.48;49.70;102802.34;5029540;28;20026;-88
2023/02/09 05:42:14;;;;;;;10.88;6.57;;;;;;;-0.49;49.95;102799.81;5029876;28;20068;-88
2023/02/09 05:44:46;;;;;;;11.95;6.03;;;;;;;-0.47;50.25;102793.78;5029121;28;20025;-89
2023/02/09 05:47:13;;;;;;;13.15;6.55;;;;;;;-0.50;50.09;102782.75;5029824;28;20116;-89
2023/02/09 05:49:39;;;;;;;12.38;6.53;;;;;;;-0.47;50.25;102795.50;5010708;28;20444;-89
2023/02/09 05:52:06;;;;;;;12.43;6.70;;;;;;;-0.49;50.33;102792.13;5023991;28;20066;-89
2023/02/09 05:54:31;;;;;;;12.70;6.53;;;;;;;-0.41;50.41;102774.94;5027145;28;20029;-88
2023/02/09 05:56:57;;;;;;;10.27;6.00;;;;;;;-0.48;50.48;102751.13;5011851;28;20037;-88
2023/02/09 05:59:22;;;;;;;15.65;6.03;;;;;;;-0.39;50.00;102752.72;5011452;28;20091;-89
2023/02/09 06:01:48;;;;;;;11.27;6.30;;;;;;;-0.35;50.16;102747.53;5030027;28;20429;-88
2023/02/09 06:04:14;;;;;;;17.10;6.10;;;;;;;-0.32;49.45;102766.28;5029436;28;20457;-88
2023/02/09 06:06:39;;;;;;;12.52;7.00;;;;;;;-0.34;49.58;102745.81;5011107;28;20120;-89
2023/02/09 06:09:04;;;;;;;10.88;5.72;;;;;;;-0.36;49.89;102748.41;5028558;28;20056;-89
2023/02/09 06:11:30;;;;;;;10.95;5.78;;;;;;;-0.32;49.88;102743.25;5010934;28;20060;-89
2023/02/09 06:13:55;;;;;;;11.02;5.88;;;;;;;-0.31;49.85;102721.88;5012287;28;20032;-88
2023/02/09 06:16:21;;;;;;;11.00;6.15;;;;;;;-0.30;49.89;102728.69;5030101;28;20037;-88
2023/02/09 06:18:46;;;;;;;14.45;6.70;;;;;;;-0.38;50.08;102709.16;5011349;28;20040;-88
2023/02/09 06:21:12;;;;;;;14.13;6.57;;;;;;;-0.34;49.90;102702.28;5028914;28;20116;-88
2023/02/09 06:23:38;;;;;;;9.43;6.65;;;;;;;-0.30;49.90;102719.31;5028724;28;20390;-89
2023/02/09 06:26:12;;;;;;;12.80;6.90;;;;;;;-0.36;49.92;102709.97;5011527;28;20108;-88
2023/02/09 06:28:38;;;;;;;11.65;6.55;;;;;;;-0.38;50.58;102711.72;5010596;28;20026;-88
2023/02/09 06:31:04;;;;;;;13.75;6.28;;;;;;;-0.35;50.43;102716.78;5029584;28;20036;-89
2023/02/09 06:33:30;;;;;;;11.50;6.28;;;;;;;-0.43;50.66;102708.34;5010461;28;20038;-88
2023/02/09 06:35:56;;;;;;;14.73;6.93;;;;;;;-0.41;50.61;102716.03;5008797;28;20052;-88
2023/02/09 06:38:21;;;;;;;10.18;5.68;;;;;;;-0.46;50.90;102705.84;5010606;28;20186;-88
2023/02/09 06:40:47;;;;;;;10.85;5.65;;;;;;;-0.37;49.90;102727.94;5011384;28;20026;-88
2023/02/09 06:43:12;;;;;;;12.68;6.45;;;;;;;-0.26;49.80;102694.50;5009947;28;20022;-89
2023/02/09 06:45:39;;;;;;;10.35;5.47;;;;;;;-0.29;50.14;102700.50;5010460;28;20028;-88
2023/02/09 06:48:06;;;;;;;12.90;6.15;;;;;;;-0.26;49.49;102700.47;5011214;28;20623;-88
2023/02/09 06:50:32;;;;;;;9.43;5.35;;;;;;;-0.07;49.32;102690.81;5008094;28;20072;-88
2023/02/09 06:52:58;;;;;;;11.93;6.53;;;;;;;-0.05;48.78;102715.53;5012468;28;20072;-88
2023/02/09 06:55:26;;;;;;;11.60;5.93;;;;;;;-0.04;48.71;102727.50;5010622;28;20423;-87
2023/02/09 06:57:53;;;;;;;8.57;5.55;;;;;;;-0.04;49.06;102737.75;5026329;28;20091;-88
2023/02/09 07:00:19;;;;;;;8.05;5.07;;;;;;;-0.01;48.86;102734.28;5025285;28;20051;-88
2023/02/09 07:02:45;;;;;;;8.30;5.43;;;;;;;0.14;48.56;102743.44;5034623;28;20022;-89
2023/02/09 07:05:12;;;;;;;19.27;5.90;;;;;;;0.06;49.20;102723.06;5013880;28;20037;-90
2023/02/09 07:07:38;;;;;;;12.80;6.03;;;;;;;0.00;49.23;102729.09;5028511;28;20480;-88
2023/02/09 07:10:05;;;;;;;10.13;5.72;;;;;;;0.07;48.12;102724.75;5010821;28;20080;-88
2023/02/09 07:12:31;;;;;;;9.48;5.80;;;;;;;0.08;48.61;102739.25;5010203;28;20072;-88
2023/02/09 07:14:56;;;;;;;8.35;5.25;;;;;;;0.11;48.57;102736.66;5011255;28;20124;-89
2023/02/09 07:17:22;;;;;;;10.45;5.85;;;;;;;0.10;48.72;102744.38;5029406;28;20392;-88
2023/02/09 07:19:47;;;;;;;11.73;5.28;;;;;;;0.13;48.50;102740.03;5011512;28;20554;-90
2023/02/09 07:22:12;;;;;;;12.85;5.68;;;;;;;0.17;48.29;102731.44;5027667;28;20022;-89
2023/02/09 07:24:38;;;;;;;11.48;5.57;;;;;;;0.19;48.08;102734.81;5015201;28;20044;-88
2023/02/09 07:27:04;;;;;;;10.13;5.38;;;;;;;0.30;47.48;102738.06;5016317;28;20396;-88
2023/02/09 07:29:31;;;;;;;8.75;4.53;;;;;;;0.45;47.13;102728.47;5032757;28;20103;-88
2023/02/09 07:31:56;;;;;;;10.05;6.38;;;;;;;0.40;47.27;102722.56;5014927;28;20365;-88
2023/02/09 07:34:21;;;;;;;10.13;4.90;;;;;;;0.36;47.44;102732.00;5014691;28;20094;-88
2023/02/09 07:36:47;;;;;;;8.77;4.97;;;;;;;0.40;47.25;102733.66;5030281;28;20025;-88
2023/02/09 07:39:12;;;;;;;7.70;5.25;;;;;;;0.40;47.84;102727.69;5013324;28;20110;-88
2023/02/09 07:41:37;;;;;;;9.85;5.18;;;;;;;0.40;47.89;102728.53;5011129;28;20033;-88
2023/02/09 07:44:03;;;;;;;7.93;4.75;;;;;;;0.52;46.53;102723.19;5029954;28;20056;-87
2023/02/09 07:46:28;;;;;;;7.55;4.80;;;;;;;0.58;46.40;102733.34;5011463;28;20124;-88
2023/02/09 07:48:56;;;;;;;10.38;4.60;;;;;;;0.60;46.48;102725.63;5032129;28;20045;-88
2023/02/09 07:51:24;;;;;;;8.05;4.63;;;;;;;0.74;46.09;102740.78;5031708;28;20059;-88
2023/02/09 07:53:52;;;;;;;7.85;4.43;;;;;;;0.73;46.63;102721.97;5013112;28;20120;-88
2023/02/09 07:56:18;;;;;;;10.48;6.10;;;;;;;0.72;47.04;102716.88;5014998;28;20039;-89
2023/02/09 07:58:43;;;;;;;9.45;4.25;;;;;;;0.74;46.30;102733.94;5014515;28;20033;-89
2023/02/09 08:01:11;;;;;;;9.40;4.80;;;;;;;0.78;46.60;102727.88;5013869;28;20022;-89
2023/02/09 08:03:38;;;;;;;9.07;4.68;;;;;;;0.76;47.03;102727.06;5012670;28;20484;-88
2023/02/09 08:06:17;;;;;;;9.18;4.35;;;;;;;0.80;46.33;102736.41;5015268;28;20049;-88
2023/02/09 08:08:52;;;;;;;12.07;4.32;;;;;;;0.88;46.13;102733.69;5012158;28;20129;-89
2023/02/09 08:11:30;;;;;;;8.13;4.03;;;;;;;0.97;46.00;102736.06;5030598;28;20396;-87
2023/02/09 08:13:57;;;;;;;6.70;3.70;;;;;;;0.98;46.08;102741.19;5013157;28;20033;-90
2023/02/09 08:16:27;;;;;;;8.88;4.03;;;;;;;1.04;45.74;102745.34;5033674;28;20033;-89
2023/02/09 08:18:58;;;;;;;7.10;4.40;;;;;;;1.19;45.22;102736.53;5027235;28;20053;-88
2023/02/09 08:21:27;;;;;;;8.85;4.88;;;;;;;1.20;45.18;102730.53;5010476;28;20045;-88
2023/02/09 08:23:55;;;;;;;6.45;4.05;;;;;;;1.19;45.38;102733.97;5030972;28;20041;-88
2023/02/09 08:26:21;;;;;;;7.18;4.22;;;;;;;1.22;45.33;102737.31;5008371;28;20037;-87
2023/02/09 08:28:47;;;;;;;8.82;5.05;;;;;;;1.26;44.76;102733.81;5031126;28;20036;-88
2023/02/09 08:31:15;;;;;;;7.90;4.47;;;;;;;1.30;44.96;102727.75;5011391;28;20096;-88
2023/02/09 08:33:41;;;;;;;8.85;4.43;;;;;;;1.33;45.33;102742.25;5030365;28;20112;-88
2023/02/09 08:36:08;;;;;;;7.05;4.38;;;;;;;1.38;45.05;102731.91;5030652;28;20029;-88
2023/02/09 08:38:34;;;;;;;7.55;4.20;;;;;;;1.43;44.41;102730.91;5011683;28;20064;-88
2023/02/09 08:41:08;;;;;;;10.55;4.50;;;;;;;1.42;45.19;102731.78;5014037;28;20033;-88
2023/02/09 08:43:34;;;;;;;7.57;4.85;;;;;;;1.49;45.42;102740.19;5028785;28;20033;-88
2023/02/09 08:46:05;;;;;;;7.88;3.88;;;;;;;1.44;44.79;102742.88;5009199;28;20036;-89
2023/02/09 08:48:33;;;;;;;7.65;4.20;;;;;;;1.47;45.32;102740.22;5010213;28;20075;-88
2023/02/09 08:50:59;;;;;;;8.35;4.53;;;;;;;1.48;45.05;102741.94;5007911;28;20101;-88
2023/02/09 08:53:25;;;;;;;6.65;4.20;;;;;;;1.56;44.33;102741.78;5011099;28;20029;-89
2023/02/09 08:55:50;;;;;;;7.32;4.35;;;;;;;1.54;44.83;102739.25;5012019;28;20084;-90
2023/02/09 08:58:16;;;;;;;9.90;4.60;;;;;;;1.62;44.83;102752.78;5031337;28;20037;-90
2023/02/09 09:00:41;;;;;;;7.13;4.10;;;;;;;1.61;44.99;102732.25;5000346;28;20103;-89
2023/02/09 09:03:07;;;;;;;7.85;4.43;;;;;;;1.56;44.99;102731.50;5012829;28;20048;-88
2023/02/09 09:05:33;;;;;;;7.28;4.82;;;;;;;1.63;44.95;102751.06;5029490;28;20041;-90
2023/02/09 09:07:59;;;;;;;6.35;4.15;;;;;;;1.61;44.57;102748.50;5030983;28;20477;-89
2023/02/09 09:10:24;;;;;;;6.88;4.18;;;;;;;1.56;45.04;102745.19;5030264;28;20115;-89
2023/02/09 09:12:50;;;;;;;7.43;4.32;;;;;;;1.63;44.82;102740.78;5029141;28;20330;-88
2023/02/09 09:15:16;;;;;;;8.73;4.57;;;;;;;1.65;45.18;102714.16;5013340;28;20084;-89
2023/02/09 09:17:41;;;;;;;8.85;4.25;;;;;;;1.70;45.56;102732.06;5012216;28;20034;-88
2023/02/09 09:20:07;;;;;;;7.57;4.38;;;;;;;1.68;45.13;102746.66;5013025;28;20087;-88
2023/02/09 09:22:33;;;;;;;8.35;4.32;;;;;;;1.70;45.56;102729.50;5012349;28;20037;-90
2023/02/09 09:24:58;;;;;;;9.07;4.57;;;;;;;1.90;45.00;102726.47;5012709;28;20041;-90
2023/02/09 09:27:23;;;;;;;6.15;3.78;;;;;;;2.01;44.67;102742.50;5011307;28;20094;-88
2023/02/09 09:29:49;;;;;;;7.07;3.92;;;;;;;1.91;44.42;102749.56;5030252;28;20071;-90
2023/02/09 09:32:14;;;;;;;8.00;4.10;;;;;;;1.95;44.33;102746.06;5012323;28;20029;-89
2023/02/09 09:34:40;;;;;;;8.93;4.40;;;;;;;2.01;44.30;102734.78;5011419;28;20326;-88
2023/02/09 09:37:08;;;;;;;7.13;3.85;;;;;;;2.08;43.89;102726.06;5012356;28;20048;-88
2023/02/09 09:39:33;;;;;;;8.57;4.47;;;;;;;2.21;44.03;102745.47;5011546;28;20021;-88
2023/02/09 09:42:00;;;;;;;6.53;4.25;;;;;;;2.23;43.85;102741.16;5030482;28;20060;-90
2023/02/09 09:44:30;;;;;;;7.78;4.38;;;;;;;2.28;43.33;102751.34;5012216;28;20033;-89
2023/02/09 09:47:00;;;;;;;5.95;3.95;;;;;;;2.30;43.98;102749.56;5029351;28;20037;-88
2023/02/09 09:49:28;;;;;;;7.35;3.78;;;;;;;2.22;43.98;102734.31;5010266;28;20030;-89
2023/02/09 09:52:31;;;;;;;11.75;6.72;;;;;;;2.43;42.85;102743.22;5012238;28;20072;-88
2023/02/09 09:54:57;;;;;;;8.23;5.18;;;;;;;2.49;43.67;102740.50;4966566;28;20195;-89
2023/02/09 09:57:28;;;;;;;7.20;4.53;;;;;;;2.42;43.48;102741.53;5026330;28;20389;-88
2023/02/09 09:59:55;;;;;;;8.35;4.32;;;;;;;2.49;43.18;102743.09;5006642;28;20029;-89
2023/02/09 10:02:27;;;;;;;7.10;4.45;;;;;;;2.57;43.53;102753.19;5028960;28;20040;-88
2023/02/09 10:04:58;;;;;;;7.07;3.85;;;;;;;2.57;43.17;102743.75;5024280;28;20147;-88
2023/02/09 10:07:29;;;;;;;6.75;4.22;;;;;;;2.59;43.81;102738.56;5029351;28;20088;-87
2023/02/09 10:10:02;;;;;;;7.20;4.63;;;;;;;2.66;43.55;102746.09;5028357;28;20497;-88
2023/02/09 10:12:38;;;;;;;7.97;4.50;;;;;;;2.64;44.13;102736.72;5028855;28;20429;-88
2023/02/09 10:15:26;;;;;;;9.07;4.10;;;;;;;2.76;43.04;102743.28;5011337;28;20037;-88
2023/02/09 10:17:52;;;;;;;6.60;4.03;;;;;;;2.72;43.75;102741.69;5013810;28;20450;-87
2023/02/09 10:20:41;;;;;;;8.10;4.15;;;;;;;2.72;43.72;102739.94;5027890;28;20029;-87
2023/02/09 10:23:25;;;;;;;6.35;4.18;;;;;;;2.85;43.38;102749.03;5025954;28;20037;-89
2023/02/09 10:25:56;;;;;;;6.80;4.25;;;;;;;2.86;43.96;102735.28;5010425;28;20569;-88
2023/02/09 10:28:24;;;;;;;9.48;4.70;;;;;;;2.91;43.13;102728.28;5012051;28;20037;-88
2023/02/09 10:30:52;;;;;;;10.48;4.47;;;;;;;2.95;43.26;102722.16;5011031;28;20245;-89
2023/02/09 10:33:18;;;;;;;6.35;4.22;;;;;;;2.94;43.58;102733.34;5011953;28;20124;-88
2023/02/09 10:35:51;;;;;;;7.50;4.47;;;;;;;2.94;43.65;102735.91;5011039;28;20462;-89
2023/02/09 10:38:19;;;;;;;7.43;4.32;;;;;;;2.86;43.72;102724.13;5010477;28;20140;-89
2023/02/09 10:40:49;;;;;;;9.10;4.40;;;;;;;3.02;43.28;102724.56;5024037;28;20029;-88
2023/02/09 10:43:19;;;;;;;6.68;3.97;;;;;;;3.10;42.64;102709.75;5007689;28;20029;-88
2023/02/09 10:45:46;;;;;;;7.22;4.32;;;;;;;3.10;42.63;102709.75;5008753;28;20474;-89
2023/02/09 10:48:12;;;;;;;6.60;4.13;;;;;;;3.06;43.14;102697.84;5009180;28;20083;-89
2023/02/09 10:50:55;;;;;;;11.45;4.63;;;;;;;3.15;43.08;102698.44;5026923;28;20118;-87
2023/02/09 10:53:32;;;;;;;7.50;5.00;;;;;;;3.06;42.88;102695.28;5029888;28;20041;-87
2023/02/09 10:56:20;;;;;;;10.40;4.05;;;;;;;3.06;43.22;102687.56;5027562;28;20524;-88
2023/02/09 10:58:52;;;;;;;11.93;4.32;;;;;;;3.13;43.23;102678.78;5015845;28;20025;-88
2023/02/09 11:01:22;;;;;;;6.78;3.83;;;;;;;3.19;42.88;102683.75;5017509;28;20140;-90
2023/02/09 11:04:05;;;;;;;7.95;4.32;;;;;;;3.13;42.66;102678.78;5033339;28;20124;-89
2023/02/09 11:06:48;;;;;;;6.55;3.75;;;;;;;3.28;42.39;102658.56;4985864;28;20128;-88
2023/02/09 11:09:17;;;;;;;6.40;3.42;;;;;;;3.38;42.21;102653.97;4992867;28;20126;-88
2023/02/09 11:11:44;;;;;;;5.47;3.67;;;;;;;3.50;42.45;102663.06;4990925;28;20049;-89
2023/02/09 11:14:16;;;;;;;5.35;3.75;;;;;;;3.58;41.71;102661.97;4992113;28;20411;-89
2023/02/09 11:16:54;;;;;;;6.80;3.45;;;;;;;3.65;41.66;102657.47;4988179;28;20045;-90
2023/02/09 11:19:22;;;;;;;7.78;3.72;;;;;;;3.63;40.94;102649.78;4990195;28;20085;-89
2023/02/09 11:21:53;;;;;;;9.07;3.70;;;;;;;3.63;41.13;102639.47;4991501;28;20060;-89
2023/02/09 11:25:00;;;;;;;7.50;3.78;;;;;;;3.76;40.43;102639.94;4989890;28;20030;-90
2023/02/09 11:27:40;;;;;;;8.25;3.13;;;;;;;3.79;40.99;102632.09;5007437;28;20049;-89
2023/02/09 11:30:53;;;;;;;7.15;4.25;;;;;;;3.74;40.34;102633.16;4990467;28;20026;-89
2023/02/09 11:33:24;;;;;;;4.57;3.10;;;;;;;3.80;41.31;102631.19;4915852;29;20163;-89
2023/02/09 11:36:13;;;;;;;7.15;3.80;;;;;;;3.88;40.33;102626.63;4926132;29;20103;-89
2023/02/09 11:39:00;;;;;;;8.15;4.18;;;;;;;3.78;40.11;102620.06;4913088;29;20443;-88